Time;durP1;ratioP1;P1;durP2;ratioP2;P2;SDS_P1;SDS_P2;PMS_P1;PMS_P2;Temp;Humidity;BMP_temperature;BMP_pressure;BME280_temperature;BME280_humidity;BME280_pressure;Samples;Min_cycle;Max_cycle;Signal;HPM_P1;HPM_P2
2022/04/22 00:01:29;;;;;;;0.20;0.20;;;10.40;99.90;;;;;;4972390;28;20528;-72
2022/04/22 00:03:55;;;;;;;0.47;0.47;;;10.50;99.90;;;;;;4972029;28;20066;-72
2022/04/22 00:06:22;;;;;;;0.52;0.52;;;10.60;99.90;;;;;;4986869;28;20023;-72
2022/04/22 00:08:47;;;;;;;0.10;0.10;;;10.50;99.90;;;;;;4972081;28;20101;-74
2022/04/22 00:11:31;;;;;;;0.15;0.15;;;10.30;99.90;;;;;;4972409;28;20034;-71
2022/04/22 00:14:01;;;;;;;0.10;0.10;;;10.30;99.90;;;;;;4986527;28;20042;-71
2022/04/22 00:16:31;;;;;;;0.65;0.65;;;10.40;99.90;;;;;;4986627;28;20042;-72
2022/04/22 00:18:58;;;;;;;1.98;1.17;;;10.50;99.90;;;;;;4971931;28;20034;-72
2022/04/22 00:21:24;;;;;;;0.30;0.30;;;10.40;99.90;;;;;;4986737;28;20043;-71
2022/04/22 00:23:50;;;;;;;0.35;0.35;;;10.40;99.90;;;;;;4986132;28;20035;-71
2022/04/22 00:26:17;;;;;;;0.17;0.17;;;10.30;99.90;;;;;;4987000;28;20023;-72
2022/04/22 00:28:43;;;;;;;0.15;0.15;;;10.20;99.90;;;;;;4986534;28;20066;-72
2022/04/22 00:31:09;;;;;;;0.17;0.17;;;10.20;99.90;;;;;;4971898;28;20027;-72
2022/04/22 00:33:35;;;;;;;0.77;0.77;;;10.10;99.90;;;;;;4970671;28;20030;-72
2022/04/22 00:36:01;;;;;;;0.25;0.25;;;10.10;99.90;;;;;;4971734;28;20078;-71
2022/04/22 00:38:27;;;;;;;0.65;0.65;;;10.10;99.90;;;;;;4986431;28;20049;-73
2022/04/22 00:40:55;;;;;;;0.20;0.20;;;10.00;99.90;;;;;;4986577;28;20027;-72
2022/04/22 00:43:23;;;;;;;0.30;0.30;;;9.90;99.90;;;;;;4986161;28;20035;-72
2022/04/22 00:45:51;;;;;;;0.65;0.55;;;9.80;99.90;;;;;;4986350;28;20121;-72
2022/04/22 00:48:19;;;;;;;0.10;0.10;;;9.60;99.90;;;;;;4986702;28;20046;-72
2022/04/22 00:50:45;;;;;;;0.98;0.93;;;9.80;99.90;;;;;;4985849;28;20078;-72
2022/04/22 00:53:13;;;;;;;0.63;0.63;;;9.70;99.90;;;;;;4986135;28;20510;-72
2022/04/22 00:55:43;;;;;;;0.25;0.25;;;9.80;99.90;;;;;;4986429;28;20370;-72
2022/04/22 00:58:09;;;;;;;3.88;1.02;;;9.70;99.90;;;;;;4986388;28;20074;-72
2022/04/22 01:00:36;;;;;;;0.80;0.80;;;9.60;99.90;;;;;;4986746;28;20054;-72
2022/04/22 01:03:03;;;;;;;0.35;0.35;;;9.50;99.90;;;;;;4986248;28;20031;-72
2022/04/22 01:10:59;;;;;;;0.40;0.40;;;9.40;99.90;;;;;;4971212;28;20039;-72
2022/04/22 01:13:25;;;;;;;1.55;1.45;;;9.40;99.90;;;;;;4986083;28;20035;-73
2022/04/22 01:15:51;;;;;;;2.83;1.35;;;9.40;99.90;;;;;;4975597;28;20041;-73
2022/04/22 01:18:17;;;;;;;1.63;1.38;;;9.30;99.90;;;;;;4952094;28;20053;-72
2022/04/22 01:20:43;;;;;;;0.30;0.30;;;9.30;99.90;;;;;;4966751;28;20027;-72
2022/04/22 01:23:09;;;;;;;3.15;0.63;;;9.30;99.90;;;;;;4950778;28;20134;-72
2022/04/22 01:25:35;;;;;;;0.75;0.75;;;9.20;99.90;;;;;;4986069;28;20038;-73
2022/04/22 01:28:02;;;;;;;0.43;0.43;;;9.20;99.90;;;;;;4971345;28;20027;-73
2022/04/22 01:30:28;;;;;;;0.38;0.38;;;9.20;99.90;;;;;;4986235;28;20038;-73
2022/04/22 01:32:56;;;;;;;0.38;0.38;;;9.20;99.90;;;;;;4970901;28;20019;-73
2022/04/22 01:35:23;;;;;;;1.25;1.15;;;9.20;99.90;;;;;;4970558;28;20027;-72
2022/04/22 01:37:50;;;;;;;1.27;0.88;;;9.10;99.90;;;;;;4985980;28;20081;-72
2022/04/22 01:40:16;;;;;;;1.80;1.30;;;9.20;99.90;;;;;;4985249;28;20039;-72
2022/04/22 01:42:42;;;;;;;3.83;1.15;;;9.20;99.90;;;;;;4966658;28;20106;-72
2022/04/22 01:45:10;;;;;;;0.10;0.10;;;9.10;99.90;;;;;;4967678;28;20118;-72
2022/04/22 01:47:36;;;;;;;0.60;0.60;;;9.20;99.90;;;;;;4969912;28;20498;-72
2022/04/22 01:50:02;;;;;;;0.77;0.73;;;9.30;99.90;;;;;;4970297;28;20069;-72
2022/04/22 01:52:29;;;;;;;2.75;1.60;;;9.40;99.90;;;;;;4969611;28;20401;-72
2022/04/22 01:54:56;;;;;;;1.58;1.48;;;9.40;99.90;;;;;;4969708;28;20023;-72
2022/04/22 01:57:22;;;;;;;0.77;0.77;;;9.40;99.90;;;;;;4954038;28;20031;-72
2022/04/22 01:59:50;;;;;;;0.10;0.10;;;9.30;99.90;;;;;;4969743;28;20439;-72
2022/04/22 02:02:17;;;;;;;0.70;0.70;;;9.30;99.90;;;;;;4969957;28;20066;-72
2022/04/22 02:04:44;;;;;;;0.70;0.32;;;9.40;99.90;;;;;;4969466;28;20086;-71
2022/04/22 02:07:10;;;;;;;0.80;0.28;;;9.50;99.90;;;;;;4969558;28;20055;-72
2022/04/22 02:09:36;;;;;;;0.17;0.17;;;9.40;99.90;;;;;;4969870;28;20479;-72
2022/04/22 02:12:04;;;;;;;6.32;1.10;;;9.30;99.90;;;;;;4953670;29;20032;-72
2022/04/22 02:14:29;;;;;;;2.78;2.58;;;9.30;99.90;;;;;;4955822;28;20019;-73
2022/04/22 02:16:55;;;;;;;0.25;0.25;;;9.20;99.90;;;;;;4988906;28;20038;-72
2022/04/22 02:19:21;;;;;;;0.20;0.20;;;9.20;99.90;;;;;;4988925;28;20038;-72
2022/04/22 02:21:49;;;;;;;1.85;0.93;;;9.20;99.90;;;;;;4988835;28;20038;-72
2022/04/22 02:24:15;;;;;;;0.52;0.52;;;9.20;99.90;;;;;;4973387;28;20450;-72
2022/04/22 02:29:26;;;;;;;0.30;0.30;;;9.20;99.90;;;;;;4986812;28;20073;-72
2022/04/22 02:31:52;;;;;;;0.52;0.52;;;9.20;99.90;;;;;;4973771;28;20027;-72
2022/04/22 02:34:20;;;;;;;0.73;0.73;;;9.20;99.90;;;;;;4973253;28;20070;-71
2022/04/22 02:36:46;;;;;;;3.95;0.90;;;9.20;99.90;;;;;;4973761;28;20038;-72
2022/04/22 02:39:12;;;;;;;0.10;0.10;;;9.10;99.90;;;;;;4988419;28;20034;-72
2022/04/22 02:47:07;;;;;;;1.55;1.45;;;9.10;99.90;;;;;;4986292;28;20042;-72
2022/04/22 02:49:33;;;;;;;0.93;0.93;;;9.00;99.90;;;;;;4988455;28;20038;-72
2022/04/22 02:51:59;;;;;;;2.60;0.63;;;9.00;99.90;;;;;;4988370;28;20030;-72
2022/04/22 02:54:25;;;;;;;0.40;0.40;;;8.90;99.90;;;;;;4971743;28;20027;-71
2022/04/22 02:56:51;;;;;;;1.75;1.05;;;8.80;99.90;;;;;;4972669;28;20082;-72
2022/04/22 02:59:19;;;;;;;0.43;0.43;;;8.80;99.90;;;;;;4987901;28;20039;-72
2022/04/22 03:01:45;;;;;;;0.35;0.35;;;8.70;99.90;;;;;;4988260;28;20026;-74
2022/04/22 03:04:12;;;;;;;0.10;0.10;;;8.70;99.90;;;;;;4972447;28;20121;-73
2022/04/22 03:06:38;;;;;;;0.60;0.60;;;8.70;99.90;;;;;;4987853;28;20027;-74
2022/04/22 03:09:04;;;;;;;0.35;0.35;;;8.70;99.90;;;;;;4987918;28;20076;-73
2022/04/22 03:11:30;;;;;;;0.10;0.10;;;8.60;99.90;;;;;;4987919;28;20037;-73
2022/04/22 03:13:56;;;;;;;1.33;1.23;;;8.20;99.90;;;;;;4972879;28;20109;-73
2022/04/22 03:16:27;;;;;;;0.30;0.30;;;8.00;99.90;;;;;;4954902;28;20038;-73
2022/04/22 03:18:53;;;;;;;0.60;0.60;;;7.90;99.90;;;;;;4968192;28;20027;-73
2022/04/22 03:21:19;;;;;;;0.10;0.10;;;8.00;99.90;;;;;;4968348;28;20035;-73
2022/04/22 03:23:45;;;;;;;3.83;0.80;;;8.10;99.90;;;;;;4953320;28;20042;-72
2022/04/22 03:26:11;;;;;;;0.65;0.65;;;8.20;99.90;;;;;;4953408;28;20561;-71
2022/04/22 03:28:38;;;;;;;0.50;0.50;;;8.30;99.90;;;;;;4968429;28;20192;-72
2022/04/22 03:31:04;;;;;;;0.17;0.17;;;8.10;99.90;;;;;;4968171;28;20031;-72
2022/04/22 03:33:30;;;;;;;0.10;0.10;;;7.90;99.90;;;;;;4967655;28;20033;-72
2022/04/22 03:35:56;;;;;;;0.32;0.32;;;7.90;99.90;;;;;;4953728;29;20028;-72
2022/04/22 03:38:22;;;;;;;0.10;0.10;;;7.90;99.90;;;;;;4968084;28;20027;-72
2022/04/22 03:40:50;;;;;;;0.43;0.43;;;7.90;99.90;;;;;;4967893;28;20023;-72
2022/04/22 03:43:17;;;;;;;0.95;0.95;;;7.80;99.90;;;;;;4967694;28;20398;-72
2022/04/22 03:45:43;;;;;;;5.18;1.38;;;7.80;99.90;;;;;;4954035;28;20031;-72
2022/04/22 03:48:10;;;;;;;0.73;0.73;;;7.80;99.90;;;;;;4966416;28;20034;-72
2022/04/22 03:50:37;;;;;;;4.57;3.15;;;7.80;99.90;;;;;;4980365;28;20031;-71
2022/04/22 03:53:08;;;;;;;32.13;1.45;;;7.70;99.90;;;;;;4990376;28;20029;-71
2022/04/22 03:55:34;;;;;;;0.73;0.70;;;7.70;99.90;;;;;;4991337;28;20110;-68
2022/04/22 03:58:12;;;;;;;8.65;1.25;;;7.70;99.90;;;;;;4971310;28;20455;-69
2022/04/22 04:00:51;;;;;;;0.30;0.30;;;7.60;99.90;;;;;;4971924;28;20031;-69
2022/04/22 04:03:23;;;;;;;0.63;0.63;;;7.60;99.90;;;;;;4971623;28;20034;-69
2022/04/22 04:05:51;;;;;;;0.30;0.30;;;7.60;99.90;;;;;;4986192;28;20031;-68
2022/04/22 04:08:19;;;;;;;0.32;0.32;;;7.60;99.90;;;;;;4986748;28;20110;-69
2022/04/22 04:15:57;;;;;;;1.38;0.30;;;7.60;99.90;;;;;;4984339;28;20023;-69
2022/04/22 04:16:29;;;;;;;0.10;0.10;;;7.60;99.90;;;;;;4971112;28;20041;-69
2022/04/22 04:23:14;;;;;;;0.10;0.10;;;7.60;99.90;;;;;;4971707;28;20022;-68
2022/04/22 04:24:24;;;;;;;1.35;1.27;;;7.60;99.90;;;;;;4971414;28;20479;-69
2022/04/22 04:26:50;;;;;;;1.05;1.05;;;7.60;99.90;;;;;;4971589;28;20030;-69
2022/04/22 04:29:16;;;;;;;0.17;0.17;;;7.60;99.90;;;;;;4971737;28;20039;-70
2022/04/22 04:31:41;;;;;;;0.30;0.30;;;7.60;99.90;;;;;;4971353;28;20027;-69
2022/04/22 04:34:07;;;;;;;0.85;0.85;;;7.60;99.90;;;;;;4971036;28;20038;-69
2022/04/22 04:36:33;;;;;;;0.30;0.30;;;7.60;99.90;;;;;;4986184;28;20026;-70
2022/04/22 04:38:59;;;;;;;0.38;0.35;;;7.60;99.90;;;;;;4971124;28;20046;-69
2022/04/22 04:41:24;;;;;;;0.25;0.25;;;7.60;99.90;;;;;;4955011;28;20035;-70
2022/04/22 04:43:51;;;;;;;1.05;0.85;;;7.70;99.90;;;;;;4951584;28;20035;-67
2022/04/22 04:46:17;;;;;;;0.68;0.68;;;7.60;99.90;;;;;;4954169;28;20087;-68
2022/04/22 04:48:43;;;;;;;1.48;1.08;;;7.60;99.90;;;;;;4971773;28;20023;-68
2022/04/22 04:51:09;;;;;;;0.22;0.22;;;7.70;99.90;;;;;;4986252;28;20026;-68
2022/04/22 04:53:34;;;;;;;0.75;0.75;;;7.80;99.90;;;;;;4986320;28;20034;-68
2022/04/22 04:56:01;;;;;;;0.28;0.28;;;7.80;99.90;;;;;;4986409;28;20113;-68
2022/04/22 04:58:27;;;;;;;0.80;0.80;;;7.80;99.90;;;;;;4985974;28;20031;-69
2022/04/22 05:00:53;;;;;;;3.25;2.25;;;7.80;99.90;;;;;;4971093;28;20033;-70
2022/04/22 05:03:18;;;;;;;0.20;0.20;;;7.80;99.90;;;;;;4971046;28;20118;-69
2022/04/22 05:05:44;;;;;;;0.20;0.20;;;7.70;99.90;;;;;;4985414;28;20049;-69
2022/04/22 05:08:10;;;;;;;1.48;1.38;;;7.70;99.90;;;;;;4985443;28;20043;-70
2022/04/22 05:10:36;;;;;;;0.35;0.35;;;7.80;99.90;;;;;;4971318;28;20031;-69
2022/04/22 05:13:03;;;;;;;0.15;0.15;;;7.80;99.90;;;;;;4985618;28;20022;-69
2022/04/22 05:15:31;;;;;;;1.27;1.17;;;7.90;99.90;;;;;;4960972;28;20027;-71
2022/04/22 05:18:04;;;;;;;0.75;0.75;;;7.90;99.90;;;;;;4982429;28;20037;-70
2022/04/22 05:20:32;;;;;;;0.55;0.55;;;7.90;99.90;;;;;;4973486;28;20034;-72
2022/04/22 05:22:58;;;;;;;1.15;1.10;;;7.90;99.90;;;;;;4975005;28;20089;-72
2022/04/22 05:25:24;;;;;;;0.43;0.43;;;7.90;99.90;;;;;;4989121;28;20039;-73
2022/04/22 05:27:50;;;;;;;0.57;0.55;;;7.90;99.90;;;;;;4989503;28;20031;-70
2022/04/22 05:33:03;;;;;;;0.05;0.05;;;7.90;99.90;;;;;;4974425;28;20155;-69
2022/04/22 05:35:29;;;;;;;2.10;0.73;;;7.90;99.90;;;;;;4974380;28;20578;-69
2022/04/22 05:37:59;;;;;;;0.20;0.20;;;8.00;99.90;;;;;;4989754;28;20081;-68
2022/04/22 05:40:33;;;;;;;0.40;0.40;;;8.00;99.90;;;;;;4989257;28;20070;-68
2022/04/22 05:43:00;;;;;;;0.47;0.47;;;8.00;99.90;;;;;;4974660;28;20182;-69
2022/04/22 05:45:27;;;;;;;0.22;0.22;;;8.00;99.90;;;;;;4988976;28;20035;-69
2022/04/22 05:47:56;;;;;;;1.85;1.25;;;8.10;99.90;;;;;;4989221;28;20077;-69
2022/04/22 05:50:22;;;;;;;1.65;1.58;;;8.20;99.90;;;;;;4989186;28;20034;-69
2022/04/22 05:52:49;;;;;;;0.55;0.52;;;8.20;99.90;;;;;;4988966;28;20592;-69
2022/04/22 05:55:19;;;;;;;0.22;0.22;;;8.30;99.90;;;;;;4988769;28;20037;-69
2022/04/22 05:57:47;;;;;;;0.65;0.65;;;8.40;99.90;;;;;;4986793;28;20031;-69
2022/04/22 06:00:18;;;;;;;0.10;0.10;;;8.50;99.90;;;;;;4989305;28;20140;-67
2022/04/22 06:02:44;;;;;;;0.55;0.55;;;8.50;99.90;;;;;;4984249;28;20114;-68
2022/04/22 06:05:13;;;;;;;0.55;0.55;;;8.60;99.90;;;;;;4971854;28;20042;-68
2022/04/22 06:07:40;;;;;;;0.43;0.43;;;8.60;99.90;;;;;;4972503;28;20035;-68
2022/04/22 06:12:52;;;;;;;0.88;0.80;;;8.80;99.90;;;;;;4985795;28;20074;-68
2022/04/22 06:15:19;;;;;;;6.88;2.97;;;9.00;99.90;;;;;;4972449;28;20043;-68
2022/04/22 06:17:46;;;;;;;1.55;1.48;;;9.00;99.90;;;;;;4986611;28;20179;-68
2022/04/22 06:20:12;;;;;;;1.30;1.20;;;9.10;99.90;;;;;;4972328;28;20031;-67
2022/04/22 06:22:38;;;;;;;0.10;0.10;;;9.20;99.90;;;;;;4986966;28;20058;-68
2022/04/22 06:25:06;;;;;;;0.30;0.30;;;9.30;99.90;;;;;;4987136;28;20023;-68
2022/04/22 06:27:38;;;;;;;0.20;0.20;;;9.40;99.90;;;;;;4987940;28;20030;-68
2022/04/22 06:30:17;;;;;;;0.30;0.30;;;9.60;99.90;;;;;;4987276;28;20466;-68
2022/04/22 06:32:45;;;;;;;1.02;0.95;;;9.60;99.90;;;;;;4986353;28;20433;-68
2022/04/22 06:35:13;;;;;;;2.55;1.27;;;9.70;99.90;;;;;;4971925;28;20034;-68
2022/04/22 06:37:51;;;;;;;1.02;1.00;;;9.70;99.90;;;;;;4971380;28;20061;-67
2022/04/22 06:45:50;;;;;;;0.28;0.28;;;9.90;99.90;;;;;;4971447;28;20031;-68
2022/04/22 06:48:19;;;;;;;2.42;2.22;;;10.10;99.90;;;;;;4971877;28;20026;-67
2022/04/22 06:50:49;;;;;;;0.55;0.55;;;10.10;99.90;;;;;;4972412;28;20039;-68
2022/04/22 06:53:19;;;;;;;0.10;0.10;;;10.10;99.90;;;;;;4985104;28;20026;-68
2022/04/22 06:55:47;;;;;;;1.17;1.08;;;10.30;99.90;;;;;;4968383;28;20062;-67
2022/04/22 06:58:16;;;;;;;1.25;1.05;;;10.30;99.90;;;;;;4968613;28;20038;-68
2022/04/22 07:00:44;;;;;;;2.22;1.67;;;10.40;99.90;;;;;;4964519;28;20089;-69
2022/04/22 07:03:13;;;;;;;0.10;0.10;;;10.60;99.90;;;;;;4984735;28;20491;-68
2022/04/22 07:05:41;;;;;;;0.20;0.20;;;10.70;99.90;;;;;;4987475;28;20038;-70
2022/04/22 07:08:14;;;;;;;2.05;1.58;;;10.70;99.90;;;;;;4972608;28;20031;-67
2022/04/22 07:10:45;;;;;;;0.20;0.20;;;10.80;99.90;;;;;;4978989;28;20107;-69
2022/04/22 07:13:12;;;;;;;;;;;11.00;99.90;;;;;;4979079;28;20042;-67
2022/04/22 07:15:39;;;;;;;0.50;0.50;;;11.00;99.90;;;;;;4969708;28;19917;-67
2022/04/22 07:18:06;;;;;;;0.05;0.05;;;11.10;99.90;;;;;;4987541;28;20034;-69
2022/04/22 07:20:33;;;;;;;0.40;0.40;;;11.10;99.90;;;;;;4969739;28;20190;-68
2022/04/22 07:23:02;;;;;;;0.08;0.08;;;11.20;99.90;;;;;;4981741;28;20038;-68
2022/04/22 07:25:28;;;;;;;1.17;1.10;;;11.30;99.90;;;;;;4962223;28;20035;-67
2022/04/22 07:27:55;;;;;;;0.60;0.60;;;11.40;99.90;;;;;;4953544;28;20026;-67
2022/04/22 07:30:22;;;;;;;1.35;1.25;;;11.50;99.90;;;;;;4960699;28;20403;-67
2022/04/22 07:32:49;;;;;;;0.70;0.70;;;11.50;99.90;;;;;;4953249;28;20020;-67
2022/04/22 07:35:21;;;;;;;0.10;0.10;;;11.60;99.90;;;;;;4978142;28;20469;-67
2022/04/22 07:38:10;;;;;;;0.55;0.47;;;11.60;99.90;;;;;;4973236;28;20034;-67
2022/04/22 07:40:37;;;;;;;0.30;0.30;;;11.70;99.90;;;;;;4963764;28;20121;-67
2022/04/22 07:48:34;;;;;;;0.73;0.73;;;11.80;99.90;;;;;;4969513;28;20053;-66
2022/04/22 07:51:00;;;;;;;2.90;1.50;;;11.80;99.90;;;;;;4968165;28;20031;-66
2022/04/22 07:53:25;;;;;;;1.30;1.20;;;11.90;99.90;;;;;;4966204;28;20034;-66
2022/04/22 07:55:51;;;;;;;0.57;0.57;;;11.80;99.90;;;;;;4968083;28;20102;-67
2022/04/22 07:58:17;;;;;;;0.77;0.73;;;12.00;99.90;;;;;;4970251;28;20038;-67
2022/04/22 08:00:46;;;;;;;0.77;0.52;;;12.20;99.90;;;;;;4980399;28;20019;-67
2022/04/22 08:03:14;;;;;;;1.10;1.00;;;12.00;99.90;;;;;;4978477;28;20030;-67
2022/04/22 08:05:39;;;;;;;0.10;0.10;;;12.10;99.90;;;;;;4978380;28;20303;-67
2022/04/22 08:08:06;;;;;;;0.77;0.77;;;12.20;99.90;;;;;;4972100;28;20031;-67
2022/04/22 08:10:36;;;;;;;0.35;0.35;;;12.30;99.90;;;;;;4960199;28;20101;-67
2022/04/22 08:13:06;;;;;;;0.90;0.75;;;12.50;99.90;;;;;;4986630;28;20082;-67
2022/04/22 08:15:35;;;;;;;0.75;0.75;;;12.60;99.90;;;;;;4976194;28;20034;-66
2022/04/22 08:18:02;;;;;;;0.70;0.70;;;12.80;99.90;;;;;;4986353;28;20037;-67
2022/04/22 08:20:33;;;;;;;0.47;0.38;;;12.90;99.90;;;;;;4962790;28;20027;-67
2022/04/22 08:23:02;;;;;;;0.45;0.45;;;12.90;99.90;;;;;;4953008;28;20031;-67
2022/04/22 08:25:28;;;;;;;1.90;0.93;;;13.00;99.90;;;;;;4968793;28;20043;-67
2022/04/22 08:27:54;;;;;;;0.63;0.63;;;12.90;99.90;;;;;;4967217;28;20054;-67
2022/04/22 08:30:20;;;;;;;0.35;0.35;;;13.00;99.90;;;;;;4959568;28;20487;-67
2022/04/22 08:32:46;;;;;;;0.50;0.47;;;13.20;99.90;;;;;;4967172;28;20086;-67
2022/04/22 08:35:12;;;;;;;0.10;0.10;;;13.30;99.90;;;;;;4958851;28;20411;-67
2022/04/22 08:37:38;;;;;;;0.88;0.75;;;13.20;99.90;;;;;;4957117;28;20105;-66
2022/04/22 08:40:08;;;;;;;0.00;0.00;;;13.40;99.90;;;;;;4975351;28;20106;-66
2022/04/22 08:42:37;;;;;;;0.05;0.05;;;13.60;99.90;;;;;;4971488;28;20034;-67
2022/04/22 08:45:06;;;;;;;0.65;0.60;;;13.70;99.90;;;;;;4977416;28;20643;-68
2022/04/22 08:50:16;;;;;;;0.30;0.30;;;14.00;99.90;;;;;;4974246;28;20487;-67
2022/04/22 08:52:57;;;;;;;0.35;0.35;;;13.70;99.90;;;;;;4970179;28;20470;-67
2022/04/22 08:55:25;;;;;;;0.17;0.17;;;13.90;99.90;;;;;;4977003;28;20031;-67
2022/04/22 08:57:54;;;;;;;0.38;0.38;;;14.00;99.90;;;;;;4988824;28;20509;-67
2022/04/22 09:00:23;;;;;;;0.38;0.28;;;14.10;99.90;;;;;;4965117;28;20101;-67
2022/04/22 09:02:55;;;;;;;1.25;1.15;;;14.30;99.60;;;;;;4974113;28;20047;-67
2022/04/22 09:05:21;;;;;;;1.02;0.17;;;14.40;99.50;;;;;;4980333;28;20030;-67
2022/04/22 09:07:47;;;;;;;0.82;0.75;;;14.60;98.80;;;;;;4990093;28;20049;-67
2022/04/22 09:10:13;;;;;;;0.75;0.75;;;14.80;98.50;;;;;;4977800;28;20114;-67
2022/04/22 09:12:51;;;;;;;0.20;0.20;;;14.70;98.00;;;;;;4970582;28;20054;-67
2022/04/22 09:15:17;;;;;;;0.55;0.55;;;14.70;98.40;;;;;;4976955;28;20035;-66
2022/04/22 09:17:42;;;;;;;6.55;0.85;;;14.80;98.20;;;;;;4954986;28;20392;-66
2022/04/22 09:20:15;;;;;;;1.05;1.00;;;14.90;98.20;;;;;;4968736;28;20026;-67
2022/04/22 09:22:44;;;;;;;0.32;0.32;;;15.20;98.10;;;;;;4964839;28;20031;-67
2022/04/22 09:25:10;;;;;;;0.40;0.40;;;15.30;97.80;;;;;;4975592;28;20042;-67
2022/04/22 09:27:44;;;;;;;14.00;1.65;;;15.30;97.20;;;;;;4955301;28;20027;-67
2022/04/22 09:30:13;;;;;;;1.73;1.52;;;15.50;97.60;;;;;;4958845;28;20491;-67
2022/04/22 09:32:41;;;;;;;0.20;0.20;;;15.70;96.90;;;;;;4955295;28;20027;-67
2022/04/22 09:35:16;;;;;;;0.10;0.10;;;15.80;96.70;;;;;;4977251;28;20507;-67
2022/04/22 09:43:47;;;;;;;0.10;0.10;;;16.20;95.30;;;;;;4954767;28;20039;-68
2022/04/22 09:46:39;;;;;;;0.45;0.45;;;16.10;94.90;;;;;;4984278;28;20034;-66
2022/04/22 09:49:06;;;;;;;0.30;0.30;;;16.00;95.60;;;;;;4968520;28;20055;-66
2022/04/22 09:51:32;;;;;;;0.35;0.35;;;16.20;94.80;;;;;;4970076;28;20075;-66
2022/04/22 09:54:01;;;;;;;1.10;1.00;;;16.10;94.60;;;;;;4986435;28;20636;-67
2022/04/22 09:56:27;;;;;;;1.27;0.65;;;16.10;94.60;;;;;;4970010;28;20034;-68
2022/04/22 09:58:53;;;;;;;3.03;1.30;;;16.30;94.90;;;;;;4984871;28;20070;-68
2022/04/22 10:01:19;;;;;;;0.77;0.77;;;16.60;94.00;;;;;;4985019;28;20059;-65
2022/04/22 10:03:46;;;;;;;0.10;0.10;;;16.80;93.80;;;;;;4969598;28;20042;-65
2022/04/22 10:06:13;;;;;;;0.10;0.10;;;16.90;94.10;;;;;;4964472;28;20035;-65
2022/04/22 10:08:39;;;;;;;1.20;1.10;;;17.10;93.20;;;;;;4979147;28;20110;-65
2022/04/22 10:11:10;;;;;;;0.70;0.57;;;16.80;93.50;;;;;;4956245;28;20031;-64
2022/04/22 10:13:45;;;;;;;;;;;17.00;92.90;;;;;;4957269;28;20035;-64
2022/04/22 10:16:12;;;;;;;0.63;0.63;;;17.00;93.50;;;;;;4968871;28;19982;-64
2022/04/22 10:18:40;;;;;;;12.13;1.30;;;17.20;93.30;;;;;;4985190;28;20066;-65
2022/04/22 10:21:06;;;;;;;0.00;0.00;;;17.50;92.80;;;;;;4983726;28;20482;-64
2022/04/22 10:23:33;;;;;;;0.05;0.05;;;17.50;92.20;;;;;;4985553;28;20027;-65
2022/04/22 10:25:59;;;;;;;0.10;0.10;;;17.70;91.80;;;;;;4982568;28;20027;-66
2022/04/22 10:28:28;;;;;;;2.30;1.27;;;17.30;91.80;;;;;;4984074;28;20038;-66
2022/04/22 10:31:00;;;;;;;1.00;0.73;;;17.50;92.40;;;;;;4960707;28;20039;-65
2022/04/22 10:33:27;;;;;;;0.90;0.75;;;17.70;91.90;;;;;;4967705;28;20031;-65
2022/04/22 10:36:01;;;;;;;0.30;0.30;;;17.70;91.40;;;;;;4969122;28;20026;-66
2022/04/22 10:38:28;;;;;;;0.43;0.43;;;17.70;91.40;;;;;;4985924;28;20033;-66
2022/04/22 10:40:54;;;;;;;0.00;0.00;;;17.90;91.70;;;;;;4981624;28;20588;-66
2022/04/22 10:43:25;;;;;;;1.65;0.85;;;17.90;91.70;;;;;;4972388;28;20388;-66
2022/04/22 10:48:39;;;;;;;0.15;0.15;;;18.40;91.30;;;;;;4982558;28;20122;-66
2022/04/22 10:51:08;;;;;;;1.85;0.25;;;18.60;90.40;;;;;;4967950;28;20519;-66
2022/04/22 10:53:47;;;;;;;1.45;0.85;;;18.90;90.00;;;;;;4970089;28;20097;-66
2022/04/22 10:56:30;;;;;;;1.63;0.50;;;19.00;89.40;;;;;;4980004;28;20145;-65
2022/04/22 10:59:21;;;;;;;0.40;0.40;;;19.10;90.50;;;;;;4958555;28;20031;-65
2022/04/22 11:01:48;;;;;;;0.10;0.10;;;19.40;88.90;;;;;;4953421;28;20077;-65
2022/04/22 11:04:26;;;;;;;1.30;0.95;;;19.60;88.60;;;;;;4956748;28;20295;-65
2022/04/22 11:06:52;;;;;;;0.50;0.50;;;19.60;87.90;;;;;;4953369;28;20122;-65
2022/04/22 11:09:31;;;;;;;0.00;0.00;;;19.60;87.60;;;;;;4957735;28;20260;-65
2022/04/22 11:11:58;;;;;;;1.85;1.13;;;19.80;86.20;;;;;;4974750;28;20082;-65
2022/04/22 11:14:32;;;;;;;0.00;0.00;;;19.40;87.80;;;;;;4968992;28;20035;-65
2022/04/22 11:17:33;;;;;;;0.17;0.17;;;19.70;84.40;;;;;;4969012;28;20027;-65
2022/04/22 11:19:59;;;;;;;0.22;0.22;;;19.90;85.00;;;;;;4963160;28;20521;-65
2022/04/22 11:22:56;;;;;;;1.23;0.68;;;19.40;86.00;;;;;;4987386;28;20046;-65
2022/04/22 11:25:26;;;;;;;0.98;0.75;;;19.50;85.90;;;;;;4963687;28;20035;-65
2022/04/22 11:27:56;;;;;;;1.27;0.20;;;19.90;85.20;;;;;;4986946;28;20509;-65
2022/04/22 11:30:26;;;;;;;0.00;0.00;;;20.00;83.70;;;;;;4963618;28;20045;-65
2022/04/22 11:33:23;;;;;;;1.00;0.98;;;20.30;83.10;;;;;;4972220;28;20023;-65
2022/04/22 11:35:56;;;;;;;0.52;0.45;;;20.70;82.60;;;;;;4957999;28;20035;-65
2022/04/22 11:38:23;;;;;;;0.52;0.47;;;20.10;83.50;;;;;;4954070;28;20061;-65
2022/04/22 11:40:52;;;;;;;0.43;0.43;;;20.10;83.90;;;;;;4974237;28;20023;-66
2022/04/22 11:43:20;;;;;;;0.20;0.20;;;20.00;81.80;;;;;;4952987;28;20027;-65
2022/04/22 11:45:48;;;;;;;0.20;0.20;;;19.70;83.30;;;;;;4967572;28;20561;-65
2022/04/22 11:48:24;;;;;;;0.95;0.90;;;20.30;83.40;;;;;;4977990;28;20126;-65
2022/04/22 11:50:50;;;;;;;1.38;1.17;;;20.40;80.90;;;;;;4983628;28;20032;-65
2022/04/22 11:53:19;;;;;;;0.50;0.50;;;20.30;81.60;;;;;;4967203;28;20394;-66
2022/04/22 11:55:47;;;;;;;0.93;0.90;;;20.70;80.60;;;;;;4966457;28;20031;-66
2022/04/22 11:58:16;;;;;;;2.05;0.45;;;20.80;80.50;;;;;;4986221;28;20097;-66
2022/04/22 12:06:14;;;;;;;0.08;0.08;;;20.80;81.20;;;;;;4958111;28;20117;-66
2022/04/22 12:09:00;;;;;;;1.15;0.75;;;21.30;80.00;;;;;;4967054;28;20035;-66
2022/04/22 12:11:26;;;;;;;0.25;0.20;;;21.40;81.30;;;;;;4952525;28;20042;-66
2022/04/22 12:13:54;;;;;;;0.22;0.22;;;20.80;78.10;;;;;;4964059;28;20216;-66
2022/04/22 12:16:27;;;;;;;1.05;0.95;;;20.50;78.50;;;;;;4955886;28;20122;-66
2022/04/22 12:18:55;;;;;;;0.32;0.32;;;20.60;80.50;;;;;;4952934;28;20386;-66
2022/04/22 12:21:22;;;;;;;0.30;0.30;;;20.60;78.30;;;;;;4970422;28;20065;-66
2022/04/22 12:23:57;;;;;;;0.30;0.30;;;21.40;79.00;;;;;;4964758;28;20037;-66
2022/04/22 12:26:25;;;;;;;0.85;0.85;;;21.70;77.00;;;;;;4956165;28;20606;-66
2022/04/22 12:29:12;;;;;;;0.17;0.17;;;21.70;76.20;;;;;;4956072;28;20046;-66
2022/04/22 12:31:47;;;;;;;0.70;0.55;;;21.30;77.20;;;;;;4970663;28;20038;-66
2022/04/22 12:34:24;;;;;;;0.30;0.25;;;21.50;76.30;;;;;;4955516;28;20023;-66
2022/04/22 12:36:54;;;;;;;0.85;0.63;;;22.20;74.50;;;;;;4965712;28;20031;-66
2022/04/22 12:39:41;;;;;;;0.25;0.13;;;22.10;77.60;;;;;;4954742;28;20046;-67
2022/04/22 12:42:29;;;;;;;0.10;0.10;;;21.70;75.60;;;;;;4966852;28;20043;-66
2022/04/22 12:54:09;;;;;;;4.95;1.05;;;22.90;74.40;;;;;;4966670;28;20462;-66
2022/04/22 12:56:36;;;;;;;0.55;0.55;;;23.10;71.00;;;;;;4982175;28;20042;-66
2022/04/22 12:59:03;;;;;;;0.38;0.32;;;22.40;70.70;;;;;;4967267;28;20034;-67
2022/04/22 13:01:37;;;;;;;1.02;0.55;;;22.20;73.40;;;;;;4960892;28;20035;-66
2022/04/22 13:04:05;;;;;;;1.23;0.98;;;22.80;72.10;;;;;;4968862;28;20095;-65
2022/04/22 13:06:47;;;;;;;0.10;0.10;;;22.70;68.90;;;;;;4955830;28;20038;-67
2022/04/22 13:09:17;;;;;;;0.80;0.77;;;23.00;70.10;;;;;;4974003;28;20082;-67
2022/04/22 13:11:43;;;;;;;0.73;0.50;;;23.60;68.80;;;;;;4983176;28;20505;-67
2022/04/22 13:14:12;;;;;;;0.10;0.10;;;24.30;66.10;;;;;;4963573;28;20102;-66
2022/04/22 13:16:38;;;;;;;0.10;0.10;;;23.50;66.60;;;;;;4984409;28;20046;-66
2022/04/22 13:19:04;;;;;;;0.10;0.10;;;24.70;66.00;;;;;;4968322;28;20035;-66
2022/04/22 13:21:34;;;;;;;0.80;0.28;;;26.10;63.00;;;;;;4955444;28;20150;-65
2022/04/22 13:24:01;;;;;;;0.75;0.32;;;25.60;64.00;;;;;;4955170;28;20521;-65
2022/04/22 13:26:27;;;;;;;0.03;0.03;;;26.20;62.90;;;;;;4964929;28;20039;-65
2022/04/22 13:28:55;;;;;;;0.10;0.03;;;27.30;61.70;;;;;;4966840;28;20383;-66
2022/04/22 13:31:22;;;;;;;0.60;0.60;;;27.80;59.50;;;;;;4981497;28;20041;-66
2022/04/22 13:33:48;;;;;;;0.77;0.32;;;26.60;59.00;;;;;;4966408;28;20027;-67
2022/04/22 13:36:15;;;;;;;1.27;0.50;;;26.10;59.50;;;;;;4966601;28;20114;-66
2022/04/22 13:38:43;;;;;;;1.70;1.38;;;26.20;59.20;;;;;;4982153;28;20023;-67
2022/04/22 13:41:09;;;;;;;1.00;0.75;;;24.10;61.00;;;;;;4982935;28;20027;-66
2022/04/22 13:43:35;;;;;;;0.13;0.13;;;23.30;63.20;;;;;;4967380;28;20053;-67
2022/04/22 13:54:18;;;;;;;0.68;0.47;;;23.60;63.30;;;;;;4981478;28;20031;-66
2022/04/22 13:56:44;;;;;;;0.20;0.20;;;23.40;63.40;;;;;;4965429;28;20025;-66
2022/04/22 13:59:10;;;;;;;0.65;0.63;;;23.40;63.70;;;;;;4956864;28;20501;-66
2022/04/22 14:01:39;;;;;;;0.20;0.20;;;22.90;63.50;;;;;;4969104;28;20027;-67
2022/04/22 14:04:06;;;;;;;0.10;0.10;;;22.60;63.40;;;;;;4966927;28;20027;-66
2022/04/22 14:06:32;;;;;;;3.83;1.10;;;22.20;66.10;;;;;;4968729;28;20031;-66
2022/04/22 14:08:57;;;;;;;2.00;0.40;;;22.40;66.00;;;;;;4968297;28;20066;-66